createdAt,value
2018-12-03T00:00:01.191Z,9.60
2018-12-03T00:05:04.496Z,9.37
2018-12-03T00:10:08.748Z,9.43
2018-12-03T00:15:11.989Z,9.07
2018-12-03T00:20:15.273Z,9.30
2018-12-03T00:25:18.483Z,9.33
2018-12-03T00:30:21.715Z,8.50
2018-12-03T00:35:24.955Z,9.17
2018-12-03T00:40:28.185Z,9.30
2018-12-03T00:45:31.401Z,7.90
2018-12-03T00:50:34.614Z,7.70
2018-12-03T00:55:38.056Z,7.43
2018-12-03T01:00:41.310Z,7.30
2018-12-03T01:05:44.687Z,7.73
2018-12-03T01:10:47.908Z,7.83
2018-12-03T01:15:51.121Z,7.63
2018-12-03T01:20:54.409Z,8.47
2018-12-03T01:25:57.600Z,8.20
2018-12-03T01:31:00.927Z,7.07
2018-12-03T01:36:04.137Z,7.10
2018-12-03T01:41:07.385Z,7.40
2018-12-03T01:46:10.564Z,7.10
2018-12-03T01:51:13.739Z,7.17
2018-12-03T01:56:17.137Z,7.50
2018-12-03T02:01:20.340Z,7.10
2018-12-03T02:06:23.568Z,6.13
2018-12-03T02:11:26.778Z,5.90
2018-12-03T02:16:30.345Z,7.30
2018-12-03T02:21:33.523Z,6.57
2018-12-03T02:26:36.694Z,7.00
2018-12-03T02:31:39.903Z,8.00
2018-12-03T02:36:43.092Z,7.83
2018-12-03T02:41:46.511Z,9.00
2018-12-03T02:46:49.800Z,8.97
2018-12-03T02:51:53.426Z,8.20
2018-12-03T02:56:56.659Z,7.80
2018-12-03T03:01:59.898Z,8.17
2018-12-03T03:07:03.112Z,8.40
2018-12-03T03:12:06.411Z,8.70
2018-12-03T03:17:09.616Z,8.20
2018-12-03T03:22:12.859Z,8.77
2018-12-03T03:27:16.097Z,9.53
2018-12-03T03:32:19.765Z,8.00
2018-12-03T03:37:22.957Z,8.60
2018-12-03T03:42:26.193Z,8.80
2018-12-03T03:47:29.391Z,9.67
2018-12-03T03:52:32.599Z,8.63
2018-12-03T03:57:35.776Z,9.20
2018-12-03T04:02:39.055Z,9.87
2018-12-03T04:07:43.422Z,8.60
2018-12-03T04:12:47.162Z,8.40
2018-12-03T04:17:50.370Z,8.70
2018-12-03T04:22:54.687Z,8.77
2018-12-03T04:27:57.880Z,9.70
2018-12-03T04:33:01.065Z,9.40
2018-12-03T04:38:04.377Z,7.73
2018-12-03T04:43:07.718Z,7.43
2018-12-03T04:48:10.928Z,8.07
2018-12-03T04:53:14.142Z,8.83
2018-12-03T04:58:17.379Z,8.23
2018-12-03T05:03:20.625Z,8.60
2018-12-03T05:08:24.029Z,8.53
2018-12-03T05:13:27.315Z,7.60
2018-12-03T05:18:30.946Z,8.00
2018-12-03T05:23:34.162Z,6.90
2018-12-03T05:28:37.516Z,7.17
2018-12-03T05:33:40.735Z,7.20
2018-12-03T05:38:44.011Z,6.70
2018-12-03T05:43:47.329Z,7.83
2018-12-03T05:48:50.707Z,7.30
2018-12-03T05:53:54.223Z,7.30
2018-12-03T05:58:57.405Z,6.30
2018-12-03T06:04:00.627Z,6.60
2018-12-03T06:09:04.545Z,6.97
2018-12-03T06:14:07.885Z,6.83
2018-12-03T06:19:11.219Z,7.23
2018-12-03T06:24:14.743Z,6.10
2018-12-03T06:29:18.000Z,7.07
2018-12-03T06:34:21.315Z,7.00
2018-12-03T06:39:24.587Z,7.07
2018-12-03T06:44:27.843Z,7.07
2018-12-03T06:49:31.110Z,6.57
2018-12-03T06:54:34.313Z,5.53
2018-12-03T06:59:37.741Z,6.63
2018-12-03T07:04:41.174Z,8.20
2018-12-03T07:09:44.844Z,7.40
2018-12-03T07:14:48.159Z,7.30
2018-12-03T07:19:51.420Z,7.43
2018-12-03T07:24:54.670Z,6.83
2018-12-03T07:29:57.969Z,7.07
2018-12-03T07:35:01.368Z,6.00
2018-12-03T07:40:05.252Z,5.80
2018-12-03T07:45:14.910Z,6.30
2018-12-03T07:50:19.654Z,6.33
2018-12-03T07:55:24.044Z,6.57
2018-12-03T08:00:30.083Z,6.20
2018-12-03T08:05:59.562Z,5.93
2018-12-03T08:11:03.225Z,6.57
2018-12-03T08:16:06.703Z,5.77
2018-12-03T08:21:10.147Z,5.97
2018-12-03T08:26:13.461Z,4.90
2018-12-03T08:31:16.991Z,5.43
2018-12-03T08:36:20.444Z,5.23
2018-12-03T08:41:23.735Z,5.93
2018-12-03T08:46:26.938Z,5.70
2018-12-03T08:51:30.217Z,5.00
2018-12-03T08:56:33.449Z,5.00
2018-12-03T09:01:36.714Z,5.07
2018-12-03T09:06:40.555Z,4.30
2018-12-03T09:11:46.851Z,4.70
2018-12-03T09:16:50.349Z,5.00
2018-12-03T09:21:53.707Z,4.20
2018-12-03T09:26:57.099Z,4.40
2018-12-03T09:32:00.337Z,3.53
2018-12-03T09:37:03.533Z,3.93
2018-12-03T09:42:06.887Z,4.07
2018-12-03T09:47:10.089Z,3.90
2018-12-03T09:52:13.591Z,3.90
2018-12-03T09:57:16.867Z,3.10
2018-12-03T10:02:25.938Z,3.70
2018-12-03T10:07:29.315Z,2.77
2018-12-03T10:12:32.590Z,3.30
2018-12-03T10:17:35.878Z,1.90
2018-12-03T10:22:41.220Z,2.10
2018-12-03T10:27:44.522Z,1.80
2018-12-03T10:32:50.456Z,1.57
2018-12-03T10:37:53.764Z,2.00
2018-12-03T10:42:57.614Z,1.57
2018-12-03T10:48:00.800Z,1.70
2018-12-03T10:53:04.060Z,1.87
2018-12-03T10:58:07.874Z,1.60
2018-12-03T11:03:13.645Z,1.70
2018-12-03T11:08:22.117Z,1.90
2018-12-03T11:13:25.389Z,1.23
2018-12-03T11:18:29.800Z,1.33
2018-12-03T11:23:34.625Z,1.73
2018-12-03T11:28:46.523Z,1.93
2018-12-03T11:33:50.441Z,2.43
2018-12-03T11:39:02.046Z,2.10
2018-12-03T11:44:05.973Z,2.07
2018-12-03T11:49:09.416Z,1.70
2018-12-03T11:54:12.682Z,2.13
2018-12-03T11:59:15.992Z,1.80
2018-12-03T12:04:19.186Z,1.60
2018-12-03T12:09:22.502Z,2.53
2018-12-03T12:14:27.235Z,1.90
2018-12-03T12:19:30.438Z,1.50
2018-12-03T12:24:33.820Z,2.20
2018-12-03T12:29:37.161Z,2.20
2018-12-03T12:34:40.368Z,1.90
2018-12-03T12:39:43.676Z,1.90
2018-12-03T12:44:47.116Z,2.33
2018-12-03T12:49:50.370Z,2.13
2018-12-03T12:54:53.573Z,1.60
2018-12-03T12:59:56.840Z,1.93
2018-12-03T13:05:00.143Z,2.10
2018-12-03T13:10:03.791Z,1.70
2018-12-03T13:15:10.765Z,1.70
2018-12-03T13:20:16.624Z,1.57
2018-12-03T13:25:20.697Z,1.50
2018-12-03T13:30:24.174Z,1.50
2018-12-03T13:35:27.750Z,1.57
2018-12-03T13:40:31.116Z,1.53
2018-12-03T13:45:34.330Z,1.97
2018-12-03T13:50:37.667Z,1.70
2018-12-03T13:55:40.965Z,1.83
2018-12-03T14:00:44.244Z,1.80
2018-12-03T14:05:54.964Z,1.60
2018-12-03T14:11:12.717Z,1.30
2018-12-03T14:17:23.590Z,1.70
2018-12-03T14:22:36.898Z,1.87
2018-12-03T14:27:40.158Z,1.53
2018-12-03T14:32:43.731Z,1.53
2018-12-03T14:37:46.944Z,2.20
2018-12-03T14:42:50.515Z,1.47
2018-12-03T14:47:53.701Z,1.70
2018-12-03T14:52:57.169Z,1.80
2018-12-03T14:58:00.422Z,1.93
2018-12-03T15:03:04.010Z,2.77
2018-12-03T15:08:07.180Z,2.47
2018-12-03T15:13:10.542Z,2.77
2018-12-03T15:18:13.920Z,3.77
2018-12-03T15:23:17.284Z,3.80
2018-12-03T15:28:20.578Z,3.70
2018-12-03T15:33:23.951Z,4.40
2018-12-03T15:38:27.186Z,4.70
2018-12-03T15:43:30.464Z,4.90
2018-12-03T15:48:33.732Z,4.50
2018-12-03T15:53:37.064Z,6.07
2018-12-03T15:58:40.321Z,5.87
2018-12-03T16:03:43.523Z,6.83
2018-12-03T16:08:47.037Z,9.80
2018-12-03T16:13:50.304Z,8.50
2018-12-03T16:18:53.524Z,7.20
2018-12-03T16:23:56.947Z,6.30
2018-12-03T16:29:00.306Z,8.47
2018-12-03T16:34:03.727Z,8.27
2018-12-03T16:39:08.096Z,11.10
2018-12-03T16:44:11.338Z,8.13
2018-12-03T16:49:14.574Z,7.30
2018-12-03T16:54:17.912Z,7.27
2018-12-03T16:59:21.509Z,8.07
2018-12-03T17:04:25.019Z,9.80
2018-12-03T17:09:28.279Z,10.30
2018-12-03T17:14:31.936Z,9.83
2018-12-03T17:19:35.681Z,10.80
2018-12-03T17:24:40.824Z,10.53
2018-12-03T17:29:52.176Z,11.40
2018-12-03T17:34:55.745Z,11.50
2018-12-03T17:39:59.388Z,10.60
2018-12-03T17:45:02.886Z,9.40
2018-12-03T17:50:06.556Z,10.00
2018-12-03T17:55:09.930Z,11.73
2018-12-03T18:00:14.441Z,11.97
2018-12-03T18:05:17.825Z,11.57
2018-12-03T18:10:21.353Z,11.30
2018-12-03T18:15:24.606Z,12.77
2018-12-03T18:20:27.977Z,9.40
2018-12-03T18:25:31.165Z,9.47
2018-12-03T18:30:34.393Z,9.80
2018-12-03T18:35:37.730Z,10.33
2018-12-03T18:40:41.880Z,11.10
2018-12-03T18:45:45.122Z,11.63
2018-12-03T18:50:50.970Z,10.80
2018-12-03T18:55:54.254Z,10.40
2018-12-03T19:00:57.491Z,11.87
2018-12-03T19:06:01.269Z,11.10
2018-12-03T19:11:05.050Z,9.00
2018-12-03T19:16:08.352Z,10.60
2018-12-03T19:21:11.652Z,9.13
2018-12-03T19:26:15.019Z,9.37
2018-12-03T19:31:18.361Z,9.20
2018-12-03T19:36:21.769Z,7.80
2018-12-03T19:41:25.214Z,7.50
2018-12-03T19:46:28.549Z,7.17
2018-12-03T19:51:32.122Z,6.60
2018-12-03T19:56:35.526Z,7.80
2018-12-03T20:01:38.916Z,6.87
2018-12-03T20:06:42.495Z,7.20
2018-12-03T20:11:46.093Z,6.30
2018-12-03T20:16:49.464Z,7.50
2018-12-03T20:21:53.136Z,7.70
2018-12-03T20:27:14.984Z,7.80
2018-12-03T20:32:29.303Z,7.40
2018-12-03T20:37:44.039Z,7.13
2018-12-03T20:42:50.526Z,6.60
2018-12-03T20:47:54.553Z,5.90
2018-12-03T20:52:57.893Z,7.60
2018-12-03T20:58:01.174Z,6.60
2018-12-03T21:03:04.588Z,6.37
2018-12-03T21:08:07.889Z,6.27
2018-12-03T21:13:11.263Z,6.03
2018-12-03T21:18:14.552Z,5.77
2018-12-03T21:23:17.929Z,7.23
2018-12-03T21:28:21.353Z,6.87
2018-12-03T21:33:24.723Z,6.50
2018-12-03T21:38:28.224Z,7.20
2018-12-03T21:43:31.587Z,6.80
2018-12-03T21:48:34.944Z,6.63
2018-12-03T21:53:38.303Z,7.17
2018-12-03T21:58:42.353Z,7.07
2018-12-03T22:03:45.906Z,7.23
2018-12-03T22:08:49.805Z,6.60
2018-12-03T22:13:53.183Z,7.10
2018-12-03T22:18:56.984Z,7.13
2018-12-03T22:24:00.395Z,6.53
2018-12-03T22:29:03.751Z,7.50
2018-12-03T22:34:06.975Z,6.33
2018-12-03T22:39:10.232Z,5.80
2018-12-03T22:44:13.990Z,7.40
2018-12-03T22:49:19.311Z,7.07
2018-12-03T22:54:22.597Z,6.87
2018-12-03T22:59:26.082Z,7.50
2018-12-03T23:04:29.568Z,6.47
2018-12-03T23:09:32.863Z,7.13
2018-12-03T23:14:36.188Z,6.50
2018-12-03T23:19:39.554Z,6.40
2018-12-03T23:24:42.874Z,6.90
2018-12-03T23:29:46.232Z,7.20
2018-12-03T23:34:49.638Z,6.23
2018-12-03T23:39:52.920Z,6.37
2018-12-03T23:44:56.265Z,6.47
2018-12-03T23:49:59.821Z,7.07
2018-12-03T23:55:03.246Z,6.70
